Time;durP1;ratioP1;P1;durP2;ratioP2;P2;SDS_P1;SDS_P2;PMS_P1;PMS_P2;Temp;Humidity;BMP_temperature;BMP_pressure;BME280_temperature;BME280_humidity;BME280_pressure;Samples;Min_cycle;Max_cycle;Signal;HPM_P1;HPM_P2
2021/08/20 00:01:54;;;;;;;;;5.75;3.00;;;;;18.76;64.20;101456.34;5034483;28;45403;-74
2021/08/20 00:04:20;;;;;;;;;5.00;4.00;;;;;18.73;64.67;101454.72;5034916;28;45565;-76
2021/08/20 00:06:46;;;;;;;;;5.00;4.00;;;;;18.70;64.77;101462.06;5038055;28;45570;-75
2021/08/20 00:09:11;;;;;;;;;3.75;3.50;;;;;18.67;65.01;101460.41;5033786;28;45483;-74
2021/08/20 00:11:37;;;;;;;;;3.00;3.00;;;;;18.66;65.04;101456.06;5033716;28;45610;-74
2021/08/20 00:14:04;;;;;;;;;2.00;2.00;;;;;18.61;64.75;101449.31;5034551;28;45378;-74
2021/08/20 00:16:29;;;;;;;;;3.50;3.00;;;;;18.60;64.97;101459.13;5033963;28;46195;-74
2021/08/20 00:18:55;;;;;;;;;3.00;3.00;;;;;18.63;65.02;101458.03;5034102;28;45506;-74
2021/08/20 00:21:20;;;;;;;;;2.00;2.00;;;;;18.61;65.51;101462.63;5034951;28;45571;-74
2021/08/20 00:23:46;;;;;;;;;3.25;3.25;;;;;18.59;65.15;101460.06;5034612;28;45447;-74
2021/08/20 00:26:11;;;;;;;;;4.00;3.25;;;;;18.56;65.49;101456.75;5033558;28;46218;-74
2021/08/20 00:28:36;;;;;;;;;3.00;3.00;;;;;18.57;65.90;101456.66;5034039;28;45697;-74
2021/08/20 00:31:02;;;;;;;;;2.50;2.00;;;;;18.58;65.60;101458.34;5034449;28;45636;-73
2021/08/20 00:33:27;;;;;;;;;3.25;3.25;;;;;18.58;65.58;101454.81;5034095;28;45495;-74
2021/08/20 00:35:54;;;;;;;;;5.00;3.75;;;;;18.59;65.90;101454.75;5034299;28;46148;-74
2021/08/20 00:38:19;;;;;;;;;3.00;3.00;;;;;18.54;65.99;101446.22;5034273;28;45830;-74
2021/08/20 00:40:45;;;;;;;;;3.75;3.00;;;;;18.58;65.24;101452.16;5014626;28;45533;-74
2021/08/20 00:43:10;;;;;;;;;4.00;3.00;;;;;18.57;65.53;101446.00;5033327;28;45634;-74
2021/08/20 00:45:36;;;;;;;;;3.00;3.00;;;;;18.55;65.71;101450.56;5047560;28;45387;-74
2021/08/20 00:48:01;;;;;;;;;6.00;4.00;;;;;18.54;65.34;101450.69;5036370;28;45452;-74
2021/08/20 00:50:27;;;;;;;;;3.25;3.00;;;;;18.54;65.47;101459.53;5033797;28;45544;-73
2021/08/20 00:52:52;;;;;;;;;6.00;3.00;;;;;18.55;65.67;101455.91;5034119;28;45480;-74
2021/08/20 00:55:20;;;;;;;;;4.00;3.00;;;;;18.53;65.79;101452.47;5033398;28;53810;-73
2021/08/20 00:57:47;;;;;;;;;5.25;3.00;;;;;18.49;66.18;101440.34;5036259;28;45423;-74
2021/08/20 01:00:13;;;;;;;;;4.75;4.75;;;;;18.55;65.78;101447.91;5033516;28;45478;-73
2021/08/20 01:02:38;;;;;;;;;3.00;3.00;;;;;18.54;65.99;101446.22;5033021;28;45549;-73
2021/08/20 01:05:04;;;;;;;;;4.50;4.00;;;;;18.58;66.58;101444.19;5032337;28;58505;-74
2021/08/20 01:07:36;;;;;;;;;5.00;5.00;;;;;18.54;66.47;101438.22;5033513;28;45325;-73
2021/08/20 01:10:02;;;;;;;;;4.00;4.00;;;;;18.59;66.34;101430.78;5033964;28;45552;-73
2021/08/20 01:12:27;;;;;;;;;4.75;3.75;;;;;18.60;66.00;101434.31;5034708;28;45285;-74
2021/08/20 01:14:52;;;;;;;;;5.75;4.50;;;;;18.62;65.91;101443.88;5033027;28;57676;-73
2021/08/20 01:17:18;;;;;;;;;4.00;4.00;;;;;18.62;66.43;101433.25;5033532;28;45800;-73
2021/08/20 01:19:43;;;;;;;;;4.50;4.00;;;;;18.66;66.05;101436.56;5033556;28;45690;-73
2021/08/20 01:22:09;;;;;;;;;5.25;4.25;;;;;18.63;65.84;101426.09;5034141;28;45576;-73
2021/08/20 01:24:34;;;;;;;;;4.75;3.25;;;;;18.71;66.33;101429.16;5015200;28;48142;-73
2021/08/20 01:27:00;;;;;;;;;4.00;4.00;;;;;18.67;65.90;101424.94;5033860;28;45320;-74
2021/08/20 01:29:25;;;;;;;;;3.00;3.00;;;;;18.67;66.00;101415.16;5032864;28;45535;-73
2021/08/20 01:31:52;;;;;;;;;7.00;6.00;;;;;18.70;65.93;101422.97;5032912;28;45374;-74
2021/08/20 01:34:18;;;;;;;;;4.50;4.00;;;;;18.76;65.65;101435.88;5033319;28;45385;-73
2021/08/20 01:36:43;;;;;;;;;4.00;4.00;;;;;18.71;65.74;101419.34;5033915;28;45361;-74
2021/08/20 01:39:08;;;;;;;;;3.00;3.00;;;;;18.79;65.11;101426.81;5033237;28;45460;-74
2021/08/20 01:41:35;;;;;;;;;5.00;4.00;;;;;18.73;65.34;101420.09;5032631;28;45497;-73
2021/08/20 01:44:00;;;;;;;;;4.00;4.00;;;;;18.81;65.05;101426.75;5032708;28;45471;-74
2021/08/20 01:46:27;;;;;;;;;3.75;3.75;;;;;18.82;65.06;101426.63;5033517;28;45444;-74
2021/08/20 01:48:55;;;;;;;;;5.50;5.00;;;;;18.81;65.02;101422.28;5033189;28;45278;-73
2021/08/20 01:51:21;;;;;;;;;5.00;5.00;;;;;18.80;65.00;101417.06;5033231;28;45306;-74
2021/08/20 01:53:47;;;;;;;;;6.25;4.00;;;;;18.79;64.95;101421.50;5035649;28;45383;-75
2021/08/20 01:56:18;;;;;;;;;5.50;5.00;;;;;18.78;65.61;101414.47;5036344;28;45593;-74
2021/08/20 01:58:45;;;;;;;;;4.25;4.25;;;;;18.78;65.69;101417.97;5036522;28;45371;-74
2021/08/20 02:01:11;;;;;;;;;4.00;4.00;;;;;18.70;65.51;101400.84;5036519;28;45469;-74
2021/08/20 02:03:36;;;;;;;;;5.00;5.00;;;;;18.76;65.19;101413.72;5036975;28;45315;-73
2021/08/20 02:06:02;;;;;;;;;4.00;4.00;;;;;18.80;65.24;101404.59;5035420;28;45519;-74
2021/08/20 02:08:27;;;;;;;;;5.25;2.75;;;;;18.79;65.44;101405.53;5035773;28;45518;-74
2021/08/20 02:10:55;;;;;;;;;6.00;5.25;;;;;18.80;65.28;101409.06;5036230;28;46439;-74
2021/08/20 02:13:21;;;;;;;;;3.25;3.25;;;;;18.79;65.58;101416.16;5036279;28;45448;-74
2021/08/20 02:15:46;;;;;;;;;5.50;4.00;;;;;18.78;65.72;101407.34;5036499;28;45287;-74
2021/08/20 02:18:12;;;;;;;;;4.00;4.00;;;;;18.78;64.87;101402.00;5036388;28;45378;-73
2021/08/20 02:20:40;;;;;;;;;4.50;4.00;;;;;18.66;65.21;101381.50;5036323;28;49818;-74
2021/08/20 02:23:07;;;;;;;;;4.50;3.50;;;;;18.70;65.42;101398.16;5035264;28;46085;-74
2021/08/20 02:25:33;;;;;;;;;5.75;3.00;;;;;18.69;65.56;101405.31;5035929;28;45683;-74
2021/08/20 02:27:58;;;;;;;;;4.00;4.00;;;;;18.68;65.38;101398.25;5035993;28;45554;-74
2021/08/20 02:30:23;;;;;;;;;3.50;3.50;;;;;18.44;65.23;101352.81;5036808;28;45470;-73
2021/08/20 02:32:49;;;;;;;;;5.50;5.00;;;;;18.72;65.46;101397.09;5035469;28;45492;-74
2021/08/20 02:35:14;;;;;;;;;5.75;5.00;;;;;18.71;65.28;101394.53;5035207;28;45435;-74
2021/08/20 02:37:39;;;;;;;;;4.25;3.00;;;;;18.67;65.38;101383.22;5035196;28;45496;-74
2021/08/20 02:40:06;;;;;;;;;6.25;4.75;;;;;18.66;65.16;101392.16;5035483;28;58764;-74
2021/08/20 02:42:31;;;;;;;;;5.00;5.00;;;;;18.63;65.35;101397.66;5036539;28;45428;-74
2021/08/20 02:44:57;;;;;;;;;6.50;4.00;;;;;18.64;65.45;101402.06;5035237;28;57370;-74
2021/08/20 02:47:22;;;;;;;;;4.00;4.00;;;;;18.64;65.52;101409.19;5035706;28;45525;-74
2021/08/20 02:49:47;;;;;;;;;7.25;5.00;;;;;18.64;65.56;101399.41;5035827;28;46319;-74
2021/08/20 02:52:13;;;;;;;;;4.25;4.00;;;;;18.65;65.26;101402.91;5034414;28;60468;-74
2021/08/20 02:54:38;;;;;;;;;4.00;3.50;;;;;18.65;65.77;101403.75;5035988;28;45398;-74
2021/08/20 02:57:04;;;;;;;;;6.00;4.75;;;;;18.60;65.89;101391.72;5035251;28;45414;-74
2021/08/20 02:59:29;;;;;;;;;5.00;4.00;;;;;18.65;66.05;101406.44;5035429;28;45459;-74
2021/08/20 03:01:54;;;;;;;;;6.75;6.75;;;;;18.68;66.06;101400.06;5035436;28;48191;-73
2021/08/20 03:04:20;;;;;;;;;3.50;3.50;;;;;18.69;66.60;101401.78;5034239;28;49699;-76
2021/08/20 03:06:45;;;;;;;;;6.25;5.00;;;;;18.69;66.11;101401.78;5034311;28;45370;-73
2021/08/20 03:09:11;;;;;;;;;4.00;3.00;;;;;18.69;66.42;101404.47;5035302;28;56417;-73
2021/08/20 03:11:37;;;;;;;;;3.00;3.00;;;;;18.69;66.91;101404.47;5035145;28;47077;-75
2021/08/20 03:14:02;;;;;;;;;3.75;3.75;;;;;18.71;66.46;101405.19;5034924;28;45562;-74
2021/08/20 03:16:28;;;;;;;;;5.00;4.00;;;;;18.67;66.40;101393.84;5035671;28;45430;-74
2021/08/20 03:18:53;;;;;;;;;6.00;5.50;;;;;18.71;66.57;101398.06;5035285;28;46898;-74
2021/08/20 03:21:19;;;;;;;;;6.00;4.00;;;;;18.72;66.33;101398.91;5034949;28;45521;-74
2021/08/20 03:23:44;;;;;;;;;5.00;4.00;;;;;18.72;66.48;101398.91;5034798;28;47699;-75
2021/08/20 03:26:09;;;;;;;;;4.75;4.00;;;;;18.71;66.97;101395.41;5035255;28;52550;-74
2021/08/20 03:28:35;;;;;;;;;5.00;5.00;;;;;18.72;66.88;101393.59;5034610;28;59623;-74
2021/08/20 03:31:00;;;;;;;;;4.25;3.25;;;;;18.72;66.48;101397.09;5035134;28;45937;-74
2021/08/20 03:33:25;;;;;;;;;5.00;5.00;;;;;18.73;66.74;101388.16;5035180;28;45423;-75
2021/08/20 03:35:51;;;;;;;;;6.25;3.25;;;;;18.73;67.04;101390.81;5033054;28;45388;-75
2021/08/20 03:38:16;;;;;;;;;5.50;4.00;;;;;18.76;66.89;101395.94;5035065;28;50022;-75
2021/08/20 03:40:41;;;;;;;;;5.00;3.00;;;;;18.76;66.83;101395.09;5034895;28;46071;-74
2021/08/20 03:43:06;;;;;;;;;3.75;3.75;;;;;18.75;66.64;101396.91;5034907;28;45511;-74
2021/08/20 03:45:32;;;;;;;;;4.25;4.00;;;;;18.77;66.21;101404.78;5034423;28;61180;-74
2021/08/20 03:47:57;;;;;;;;;7.75;4.00;;;;;18.73;65.96;101396.13;5034794;28;45849;-75
2021/08/20 03:50:22;;;;;;;;;4.25;4.25;;;;;18.74;66.37;101402.31;5034418;28;46002;-74
2021/08/20 03:52:48;;;;;;;;;6.00;4.00;;;;;18.72;66.50;101401.56;5034202;28;45351;-75
2021/08/20 03:55:13;;;;;;;;;5.00;4.25;;;;;18.69;66.55;101404.47;5035079;28;45339;-74
2021/08/20 03:57:38;;;;;;;;;5.50;5.00;;;;;18.72;66.38;101410.41;5035130;28;51539;-74
2021/08/20 04:00:06;;;;;;;;;4.00;3.00;;;;;18.71;66.17;101410.53;5034405;28;45360;-74
2021/08/20 04:02:32;;;;;;;;;4.25;4.25;;;;;18.69;66.16;101410.63;5034800;28;45379;-75
2021/08/20 04:04:57;;;;;;;;;4.00;4.00;;;;;18.67;65.99;101403.66;5033763;28;45399;-74
2021/08/20 04:07:23;;;;;;;;;7.00;4.75;;;;;18.64;65.93;101409.19;5039006;28;45379;-74
2021/08/20 04:09:48;;;;;;;;;5.00;5.00;;;;;18.64;66.02;101411.88;5034579;28;45713;-74
2021/08/20 04:12:14;;;;;;;;;9.00;5.75;;;;;18.62;66.01;101419.06;5035209;28;45470;-75
2021/08/20 04:14:40;;;;;;;;;4.50;4.50;;;;;18.60;66.52;101418.34;5034212;28;45754;-74
2021/08/20 04:17:05;;;;;;;;;8.00;4.00;;;;;18.59;66.22;101419.28;5034464;28;45397;-74
2021/08/20 04:19:31;;;;;;;;;5.00;4.00;;;;;18.59;66.45;101419.28;5033347;28;45421;-74
2021/08/20 04:21:56;;;;;;;;;4.00;4.00;;;;;18.52;66.53;101414.34;5034097;28;45315;-75
2021/08/20 04:24:22;;;;;;;;;5.25;4.75;;;;;18.57;66.88;101423.84;5035235;28;45611;-74
2021/08/20 04:26:47;;;;;;;;;4.25;4.25;;;;;18.59;66.63;101427.28;5034221;28;45451;-75
2021/08/20 04:29:13;;;;;;;;;5.00;3.25;;;;;18.60;66.96;101429.84;5033583;28;62316;-73
2021/08/20 04:31:39;;;;;;;;;5.25;4.75;;;;;18.60;66.89;101429.84;5033949;28;45779;-74
2021/08/20 04:34:04;;;;;;;;;6.00;4.50;;;;;18.59;66.57;101432.59;5033963;28;45584;-74
2021/08/20 04:36:29;;;;;;;;;7.00;5.75;;;;;18.57;66.61;101426.50;5037908;28;45630;-75
2021/08/20 04:38:55;;;;;;;;;4.50;4.50;;;;;18.57;66.97;101431.84;5033805;28;46171;-74
2021/08/20 04:41:20;;;;;;;;;3.50;3.50;;;;;18.58;67.19;101430.88;5032743;28;45482;-75
2021/08/20 04:43:45;;;;;;;;;3.25;3.25;;;;;18.56;67.22;101420.34;5034033;28;45487;-74
2021/08/20 04:46:11;;;;;;;;;4.75;4.75;;;;;18.60;67.10;101435.16;5033741;28;45398;-75
2021/08/20 04:48:36;;;;;;;;;4.50;4.00;;;;;18.60;66.95;101436.97;5033549;28;45995;-74
2021/08/20 04:51:01;;;;;;;;;5.75;5.00;;;;;18.57;66.89;101431.84;5033125;28;59377;-74
2021/08/20 04:53:30;;;;;;;;;5.00;5.00;;;;;18.58;67.00;101437.03;5033897;28;45450;-74
2021/08/20 04:55:57;;;;;;;;;6.00;4.00;;;;;18.55;66.82;101423.97;5033655;28;45550;-74
2021/08/20 04:58:23;;;;;;;;;5.75;5.00;;;;;18.59;67.25;101436.13;5033977;28;45321;-75
2021/08/20 05:00:48;;;;;;;;;4.75;4.75;;;;;18.52;67.19;101430.31;5033857;28;45356;-75
2021/08/20 05:03:14;;;;;;;;;6.50;5.00;;;;;18.56;67.27;101430.13;5033596;28;45693;-74
2021/08/20 05:05:43;;;;;;;;;4.75;4.75;;;;;18.61;66.63;101441.34;5035835;28;45417;-74
2021/08/20 05:08:09;;;;;;;;;4.50;3.75;;;;;18.61;66.79;101444.00;5033343;28;45560;-75
2021/08/20 05:10:34;;;;;;;;;8.75;6.00;;;;;18.57;67.04;101437.16;5033829;28;45391;-75
2021/08/20 05:13:00;;;;;;;;;6.25;5.25;;;;;18.63;66.97;101444.75;5033028;28;54692;-75
2021/08/20 05:15:27;;;;;;;;;6.00;6.00;;;;;18.64;67.47;101443.81;5034000;28;45455;-74
2021/08/20 05:17:54;;;;;;;;;5.75;5.00;;;;;18.64;66.84;101443.81;5032898;28;45478;-75
2021/08/20 05:20:19;;;;;;;;;4.00;4.00;;;;;18.64;66.83;101446.47;5012013;28;45424;-74
2021/08/20 05:22:51;;;;;;;;;6.25;5.25;;;;;18.64;67.00;101438.47;5029291;28;45542;-75
2021/08/20 05:25:17;;;;;;;;;5.50;5.50;;;;;18.58;67.53;101436.19;5033598;28;45172;-74
2021/08/20 05:27:42;;;;;;;;;5.75;5.75;;;;;18.68;67.17;101450.66;5036486;28;46199;-74
2021/08/20 05:30:09;;;;;;;;;5.25;4.50;;;;;18.68;67.29;101450.66;5037009;28;45492;-75
2021/08/20 05:32:34;;;;;;;;;5.00;5.00;;;;;18.70;66.87;101446.09;5036612;28;45802;-74
2021/08/20 05:35:00;;;;;;;;;4.50;4.00;;;;;18.69;66.86;101449.72;5038607;28;45901;-74
2021/08/20 05:37:26;;;;;;;;;4.00;4.00;;;;;18.68;67.38;101448.84;5037212;28;46934;-74
2021/08/20 05:39:51;;;;;;;;;5.50;4.25;;;;;18.68;67.50;101446.16;5037091;28;45459;-75
2021/08/20 05:42:16;;;;;;;;;7.00;5.50;;;;;18.71;67.34;101451.31;5037409;28;45408;-74
2021/08/20 05:44:42;;;;;;;;;5.25;5.25;;;;;18.67;67.55;101443.59;5036471;28;45565;-75
2021/08/20 05:47:07;;;;;;;;;7.00;5.00;;;;;18.76;67.50;101456.34;5036494;28;45384;-74
2021/08/20 05:49:32;;;;;;;;;7.00;5.50;;;;;18.78;66.69;101455.25;5035622;28;55245;-74
2021/08/20 05:51:57;;;;;;;;;6.00;6.00;;;;;18.80;67.41;101459.66;5035562;28;54713;-74
2021/08/20 05:54:23;;;;;;;;;5.75;4.75;;;;;18.81;66.92;101462.22;5037291;28;45289;-74
2021/08/20 05:56:48;;;;;;;;;5.50;4.00;;;;;18.81;67.23;101459.56;5036268;28;46913;-75
2021/08/20 05:59:14;;;;;;;;;3.75;2.75;;;;;18.82;66.67;101460.41;5035924;28;45526;-75
2021/08/20 06:01:39;;;;;;;;;7.25;5.00;;;;;18.83;67.17;101459.44;5036639;28;45380;-75
2021/08/20 06:04:04;;;;;;;;;7.75;7.50;;;;;18.85;67.17;101455.75;5036487;28;45602;-75
2021/08/20 06:06:30;;;;;;;;;5.75;4.75;;;;;18.89;67.14;101464.34;5035091;28;56991;-75
2021/08/20 06:08:55;;;;;;;;;5.00;5.00;;;;;18.92;67.15;101459.69;5036405;28;45486;-74
2021/08/20 06:11:21;;;;;;;;;6.50;6.00;;;;;18.85;66.43;101442.44;5036359;28;45575;-73
2021/08/20 06:13:49;;;;;;;;;6.50;5.00;;;;;18.95;66.99;101463.94;5036713;28;45470;-75
2021/08/20 06:16:17;;;;;;;;;7.25;6.00;;;;;18.95;66.85;101463.94;5035922;28;46143;-75
2021/08/20 06:18:42;;;;;;;;;6.25;5.75;;;;;18.95;66.46;101462.16;5036453;28;45396;-75
2021/08/20 06:21:08;;;;;;;;;7.00;6.00;;;;;18.96;66.40;101466.53;5018249;28;46210;-74
2021/08/20 06:23:33;;;;;;;;;4.75;4.25;;;;;18.99;66.58;101468.13;5036336;28;45427;-74
2021/08/20 06:25:59;;;;;;;;;5.75;5.00;;;;;18.99;66.75;101465.47;5035921;28;46282;-74
2021/08/20 06:28:24;;;;;;;;;8.00;7.00;;;;;19.06;66.54;101474.75;5035916;28;45550;-74
2021/08/20 06:30:49;;;;;;;;;7.75;6.00;;;;;19.08;66.84;101477.31;5035434;28;45460;-74
2021/08/20 06:33:15;;;;;;;;;7.00;6.00;;;;;19.04;66.90;101464.19;5036113;28;45486;-73
2021/08/20 06:35:41;;;;;;;;;8.00;4.00;;;;;19.13;67.11;101472.53;5035212;28;46023;-74
2021/08/20 06:38:06;;;;;;;;;9.50;7.00;;;;;19.16;66.85;101475.84;5035780;28;45479;-74
2021/08/20 06:40:33;;;;;;;;;9.25;7.75;;;;;19.17;66.80;101474.03;5035945;28;45434;-73
2021/08/20 06:42:58;;;;;;;;;7.75;5.25;;;;;19.19;66.86;101474.78;5035318;28;45264;-75
2021/08/20 06:45:23;;;;;;;;;7.25;7.25;;;;;19.16;66.87;101469.66;5036024;28;46141;-73
2021/08/20 06:47:49;;;;;;;;;5.50;5.50;;;;;19.17;66.83;101468.72;5034072;28;53166;-75
2021/08/20 06:50:14;;;;;;;;;5.75;4.25;;;;;19.25;67.05;101485.88;5035263;28;45340;-73
2021/08/20 06:52:39;;;;;;;;;6.75;6.50;;;;;19.28;66.90;101480.34;5035494;28;45502;-73
2021/08/20 06:55:05;;;;;;;;;8.00;6.00;;;;;19.29;66.98;101475.88;5034457;28;49427;-73
2021/08/20 06:57:30;;;;;;;;;9.50;6.75;;;;;19.32;66.83;101475.69;5035174;28;45412;-73
2021/08/20 06:59:56;;;;;;;;;11.25;9.25;;;;;19.33;66.31;101474.72;5034719;28;54018;-72
2021/08/20 07:02:22;;;;;;;;;9.50;6.25;;;;;19.38;66.96;101482.41;5034277;28;45521;-75
2021/08/20 07:04:48;;;;;;;;;7.25;5.00;;;;;19.38;66.83;101483.25;5034745;28;45525;-73
2021/08/20 07:07:14;;;;;;;;;12.75;6.00;;;;;19.35;66.44;101475.44;5035490;28;45678;-74
2021/08/20 07:09:39;;;;;;;;;6.00;5.75;;;;;19.44;66.28;101484.63;5035390;28;45541;-74
2021/08/20 07:12:05;;;;;;;;;7.50;7.25;;;;;19.18;66.18;101433.13;5033838;28;56456;-74
2021/08/20 07:14:30;;;;;;;;;8.50;7.25;;;;;19.45;66.11;101476.53;5035468;28;45436;-74
2021/08/20 07:16:55;;;;;;;;;6.25;5.50;;;;;19.46;66.49;101485.38;5034581;28;45608;-75
2021/08/20 07:19:20;;;;;;;;;10.25;8.00;;;;;19.46;66.07;101486.22;5042853;28;56732;-74
2021/08/20 07:21:46;;;;;;;;;10.75;8.00;;;;;19.49;66.63;101479.84;5034754;28;45426;-73
2021/08/20 07:24:11;;;;;;;;;7.00;6.50;;;;;19.54;65.94;101481.25;5029049;28;47130;-72
2021/08/20 07:26:36;;;;;;;;;8.00;7.00;;;;;19.51;65.86;101476.09;5033083;28;45337;-73
2021/08/20 07:29:02;;;;;;;;;7.50;4.75;;;;;19.56;66.22;101481.97;5034853;28;45312;-72
2021/08/20 07:31:28;;;;;;;;;11.00;7.75;;;;;19.63;66.52;101486.91;5033781;28;45391;-72
2021/08/20 07:33:54;;;;;;;;;5.50;5.50;;;;;19.65;66.38;101493.00;5035133;28;45604;-72
2021/08/20 07:36:20;;;;;;;;;7.75;6.00;;;;;19.63;66.32;101484.25;5035170;28;45819;-72
2021/08/20 07:38:45;;;;;;;;;8.00;7.00;;;;;19.70;66.43;101497.06;5034530;28;45404;-72
2021/08/20 07:41:11;;;;;;;;;7.00;6.00;;;;;19.76;66.38;101493.13;5034670;28;45487;-73
2021/08/20 07:43:36;;;;;;;;;9.25;7.25;;;;;19.80;66.29;101500.81;5016330;28;48263;-75
2021/08/20 07:46:01;;;;;;;;;7.75;7.00;;;;;19.79;66.22;101495.59;5033968;28;45514;-73
2021/08/20 07:48:27;;;;;;;;;10.50;9.50;;;;;19.84;65.82;101503.25;5034689;28;50440;-72
2021/08/20 07:50:52;;;;;;;;;11.25;8.50;;;;;19.84;65.77;101498.78;5033478;28;45431;-73
2021/08/20 07:53:17;;;;;;;;;7.75;7.75;;;;;19.87;65.95;101500.38;5034088;28;45526;-72
2021/08/20 07:55:44;;;;;;;;;7.00;6.75;;;;;19.91;66.09;101502.72;5031846;28;45495;-73
2021/08/20 07:58:09;;;;;;;;;6.75;5.75;;;;;19.87;65.75;101493.22;5018667;28;45471;-74
2021/08/20 08:00:35;;;;;;;;;8.75;6.25;;;;;19.98;66.05;101501.31;5034534;28;45463;-72
2021/08/20 08:03:00;;;;;;;;;8.25;6.50;;;;;20.02;65.82;101504.63;5033742;28;45461;-72
2021/08/20 08:05:26;;;;;;;;;9.00;8.50;;;;;19.97;65.74;101499.63;5032530;28;45548;-73
2021/08/20 08:07:54;;;;;;;;;10.00;6.75;;;;;20.04;65.87;101508.03;5032810;28;45395;-72
2021/08/20 08:10:21;;;;;;;;;9.00;7.75;;;;;20.07;65.78;101508.69;5030818;28;45630;-72
2021/08/20 08:12:46;;;;;;;;;10.50;9.75;;;;;20.15;66.18;101513.50;5036860;28;45806;-72
2021/08/20 08:15:12;;;;;;;;;10.25;9.25;;;;;20.22;65.32;101509.41;5033301;28;45438;-72
2021/08/20 08:17:38;;;;;;;;;13.50;10.50;;;;;20.26;65.54;101516.25;5035378;28;45398;-72
2021/08/20 08:20:06;;;;;;;;;12.00;10.25;;;;;20.27;65.13;101509.09;5037244;28;45670;-72
2021/08/20 08:22:31;;;;;;;;;17.75;8.00;;;;;20.30;65.57;101507.03;5033846;28;45473;-73
2021/08/20 08:24:57;;;;;;;;;56.25;44.00;;;;;20.37;65.44;101511.97;5030900;28;45547;-72
2021/08/20 08:27:22;;;;;;;;;12.50;11.00;;;;;20.53;65.26;101520.59;5037222;28;45450;-72
2021/08/20 08:29:47;;;;;;;;;8.50;7.75;;;;;20.59;65.08;101521.00;5033394;28;45768;-72
2021/08/20 08:32:13;;;;;;;;;11.00;11.00;;;;;20.66;64.40;101528.56;5036192;28;47099;-72
2021/08/20 08:34:38;;;;;;;;;10.75;10.50;;;;;20.69;64.33;101528.34;5033925;28;45522;-72
2021/08/20 08:37:04;;;;;;;;;10.00;10.00;;;;;20.66;64.56;101525.88;5037691;28;45552;-72
2021/08/20 08:39:30;;;;;;;;;10.00;10.00;;;;;20.73;64.20;101530.69;5036493;28;45510;-72
2021/08/20 08:41:55;;;;;;;;;10.25;10.25;;;;;20.73;64.22;101525.34;5036009;28;46007;-72
2021/08/20 08:44:20;;;;;;;;;11.00;9.00;;;;;20.83;64.12;101531.72;5035586;28;45385;-73
2021/08/20 08:46:47;;;;;;;;;9.00;9.00;;;;;20.80;64.15;101528.41;5042688;28;45533;-73
2021/08/20 08:49:13;;;;;;;;;11.00;8.50;;;;;20.91;63.50;101530.28;5032481;28;45488;-73
2021/08/20 08:51:39;;;;;;;;;8.25;6.75;;;;;20.92;63.71;101522.16;5034448;28;46242;-74
2021/08/20 08:54:04;;;;;;;;;10.50;8.00;;;;;21.00;63.99;101533.16;5030838;28;45562;-73
2021/08/20 08:56:29;;;;;;;;;12.25;9.50;;;;;21.10;63.08;101533.31;5032678;28;45410;-73
2021/08/20 08:58:55;;;;;;;;;9.50;7.25;;;;;21.13;63.52;101524.19;5029695;28;45709;-74
2021/08/20 09:01:27;;;;;;;;;11.00;9.25;;;;;21.24;63.08;101534.94;5029917;28;46525;-73
2021/08/20 09:04:35;;;;;;;;;9.75;9.25;;;;;21.27;63.02;101524.88;5032118;28;45704;-73
2021/08/20 09:07:00;;;;;;;;;11.00;9.75;;;;;21.37;62.38;101533.09;5029346;28;45459;-73
2021/08/20 09:09:26;;;;;;;;;8.00;7.50;;;;;21.44;62.39;101523.63;5034267;28;58903;-73
2021/08/20 09:12:06;;;;;;;;;12.00;7.75;;;;;21.48;62.25;101526.94;5013556;28;47280;-73
2021/08/20 09:14:35;;;;;;;;;9.75;7.50;;;;;21.58;62.86;101536.81;5032416;28;45651;-73
2021/08/20 09:17:00;;;;;;;;;15.00;10.75;;;;;21.71;62.23;101531.34;5039138;28;45813;-74
2021/08/20 09:19:28;;;;;;;;;7.25;6.75;;;;;21.79;62.64;101528.94;5032437;28;45802;-76
2021/08/20 09:21:56;;;;;;;;;8.50;7.50;;;;;21.82;61.79;101520.69;5032416;28;46462;-74
2021/08/20 09:24:36;;;;;;;;;10.25;8.50;;;;;21.94;61.73;101520.69;5032100;28;45503;-73
2021/08/20 09:27:14;;;;;;;;;8.00;8.00;;;;;22.08;61.40;101529.34;5030873;28;45505;-73
2021/08/20 09:30:07;;;;;;;;;9.75;8.00;;;;;22.08;61.13;101515.97;5031744;28;45789;-73
2021/08/20 09:32:43;;;;;;;;;9.50;9.00;;;;;22.21;61.17;101515.00;5031921;28;46241;-73
2021/08/20 09:35:08;;;;;;;;;8.50;7.25;;;;;22.32;60.72;101518.53;5035938;28;45511;-73
2021/08/20 09:37:34;;;;;;;;;7.25;5.75;;;;;22.43;60.97;101515.00;5036853;28;45522;-74
2021/08/20 09:40:06;;;;;;;;;9.50;9.00;;;;;22.54;60.20;101516.81;5037440;28;45356;-73
2021/08/20 09:42:33;;;;;;;;;6.75;5.25;;;;;22.59;60.93;101518.13;5036326;28;46734;-74
2021/08/20 09:45:20;;;;;;;;;12.25;7.00;;;;;22.68;60.50;101519.22;5038939;28;45493;-73
2021/08/20 09:47:50;;;;;;;;;10.75;8.00;;;;;22.77;59.84;101518.47;5032036;28;45768;-73
2021/08/20 09:50:16;;;;;;;;;10.00;8.00;;;;;22.90;59.70;101521.84;5037845;28;45476;-73
2021/08/20 09:52:42;;;;;;;;;49.00;38.25;;;;;23.03;59.23;101521.72;5036126;28;45541;-74
2021/08/20 09:55:08;;;;;;;;;5.50;5.50;;;;;23.20;59.18;101524.81;5036390;28;45502;-73
2021/08/20 09:57:38;;;;;;;;;5.00;5.00;;;;;23.37;59.15;101519.72;5040546;28;45503;-73
2021/08/20 10:00:08;;;;;;;;;11.00;6.00;;;;;23.56;58.62;101523.53;5040823;28;45524;-73
2021/08/20 10:02:35;;;;;;;;;5.00;4.75;;;;;23.78;57.92;101519.88;5037169;28;47168;-73
2021/08/20 10:05:01;;;;;;;;;9.50;7.25;;;;;23.94;57.61;101522.94;5036812;28;45456;-73
2021/08/20 10:07:27;;;;;;;;;5.00;5.00;;;;;24.09;57.26;101524.28;5036603;28;45458;-72
2021/08/20 10:09:55;;;;;;;;;11.25;8.75;;;;;24.31;57.60;101527.75;5035934;28;45716;-73
2021/08/20 10:12:23;;;;;;;;;4.00;4.00;;;;;24.54;57.49;101523.09;5025494;28;45559;-74
2021/08/20 10:14:50;;;;;;;;;5.50;4.25;;;;;24.75;55.48;101521.16;5034663;28;45487;-73
2021/08/20 10:17:16;;;;;;;;;8.25;5.00;;;;;24.85;55.01;101519.31;5029032;28;45300;-73
2021/08/20 10:19:42;;;;;;;;;8.50;8.00;;;;;24.92;54.68;101520.47;5034679;28;45507;-72
2021/08/20 10:22:08;;;;;;;;;6.50;5.25;;;;;25.08;55.32;101525.31;5046506;28;45461;-73
2021/08/20 10:24:34;;;;;;;;;6.75;6.50;;;;;25.32;54.28;101522.22;5045820;28;45514;-73
2021/08/20 10:27:02;;;;;;;;;7.25;6.00;;;;;25.42;53.53;101519.47;5041698;28;45518;-73
2021/08/20 10:29:31;;;;;;;;;11.00;7.00;;;;;25.55;53.71;101517.34;5039840;28;45363;-73
2021/08/20 10:31:58;;;;;;;;;5.75;4.75;;;;;25.82;53.66;101523.84;5040805;28;45444;-73
2021/08/20 10:34:30;;;;;;;;;9.25;5.00;;;;;26.02;52.40;101520.09;5040263;28;45509;-73
2021/08/20 10:37:12;;;;;;;;;9.25;4.50;;;;;26.23;51.88;101515.31;5043836;28;45556;-73
2021/08/20 10:39:43;;;;;;;;;6.50;5.00;;;;;26.55;51.63;101524.84;5033759;28;45444;-73
2021/08/20 10:42:14;;;;;;;;;4.00;4.00;;;;;26.86;51.58;101519.09;5037812;28;46250;-73
2021/08/20 10:44:45;;;;;;;;;6.25;5.00;;;;;27.21;51.47;101524.53;5043267;28;45480;-73
2021/08/20 10:47:27;;;;;;;;;5.00;4.50;;;;;27.52;50.69;101527.66;5046066;28;45357;-73
2021/08/20 10:50:17;;;;;;;;;4.00;4.00;;;;;27.91;50.07;101524.56;5027230;28;45526;-73
2021/08/20 10:52:45;;;;;;;;;3.00;3.00;;;;;28.31;48.63;101517.69;5031136;28;45779;-73
2021/08/20 10:55:16;;;;;;;;;3.00;3.00;;;;;28.62;47.55;101509.03;5032579;28;45747;-73
2021/08/20 10:57:42;;;;;;;;;3.00;3.00;;;;;28.95;47.87;101512.69;5043176;28;45484;-73
2021/08/20 11:00:19;;;;;;;;;2.00;2.00;;;;;29.37;46.23;101513.38;5034373;28;45344;-73
2021/08/20 11:02:51;;;;;;;;;2.00;2.00;;;;;29.46;45.46;101511.50;5032274;28;45446;-72
2021/08/20 11:05:19;;;;;;;;;2.00;2.00;;;;;29.59;45.73;101505.59;5033256;28;45560;-73
2021/08/20 11:07:45;;;;;;;;;2.00;2.00;;;;;29.78;44.93;101516.06;5034562;28;45392;-73
2021/08/20 11:10:10;;;;;;;;;3.00;3.00;;;;;29.95;44.42;101513.31;5034676;28;45641;-72
2021/08/20 11:12:41;;;;;;;;;4.00;3.00;;;;;30.01;44.96;101513.44;5037268;28;45655;-72
2021/08/20 11:15:25;;;;;;;;;2.00;2.00;;;;;30.04;44.03;101506.84;5034852;28;45376;-71
2021/08/20 11:18:01;;;;;;;;;3.50;2.00;;;;;30.07;44.16;101507.34;5038280;28;47528;-72
2021/08/20 11:20:45;;;;;;;;;2.50;1.50;;;;;30.17;44.05;101504.44;5031011;28;45686;-72
2021/08/20 11:23:11;;;;;;;;;3.75;2.75;;;;;30.23;44.08;101500.22;5032826;28;46656;-71